createdAt,value
2022-11-16T00:01:48.592Z,32.13
2022-11-16T00:04:15.544Z,30.47
2022-11-16T00:06:42.533Z,31.40
2022-11-16T00:09:26.686Z,30.07
2022-11-16T00:11:56.735Z,27.53
2022-11-16T00:14:27.181Z,30.93
2022-11-16T00:16:54.514Z,26.60
2022-11-16T00:19:21.621Z,29.20
2022-11-16T00:21:48.625Z,27.00
2022-11-16T00:24:17.855Z,28.63
2022-11-16T00:26:45.430Z,28.20
2022-11-16T00:29:21.012Z,28.63
2022-11-16T00:31:48.228Z,27.77
2022-11-16T00:34:15.688Z,28.37
2022-11-16T00:36:43.026Z,27.57
2022-11-16T00:39:14.967Z,20.37
2022-11-16T00:41:43.125Z,25.83
2022-11-16T00:44:11.221Z,25.10
2022-11-16T00:46:38.602Z,27.83
2022-11-16T00:49:06.369Z,24.47
2022-11-16T00:51:35.017Z,27.60
2022-11-16T00:54:02.434Z,27.03
2022-11-16T00:56:29.314Z,28.00
2022-11-16T00:58:56.294Z,26.10
2022-11-16T01:01:23.193Z,26.30
2022-11-16T01:03:50.134Z,25.47
2022-11-16T01:06:17.639Z,26.47
2022-11-16T01:08:45.406Z,26.77
2022-11-16T01:11:34.164Z,27.20
2022-11-16T01:14:07.487Z,25.77
2022-11-16T01:16:34.586Z,26.67
2022-11-16T01:19:02.135Z,24.47
2022-11-16T01:21:28.983Z,26.77
2022-11-16T01:23:57.143Z,24.97
2022-11-16T01:26:24.918Z,26.30
2022-11-16T01:28:52.222Z,26.50
2022-11-16T01:31:19.649Z,26.97
2022-11-16T01:33:46.509Z,23.53
2022-11-16T01:36:14.857Z,24.70
2022-11-16T01:38:46.869Z,26.57
2022-11-16T01:41:18.211Z,24.70
2022-11-16T01:44:23.916Z,28.00
2022-11-16T01:46:50.789Z,25.60
2022-11-16T01:49:22.681Z,24.97
2022-11-16T01:52:02.177Z,24.57
2022-11-16T01:54:31.171Z,26.00
2022-11-16T01:57:03.310Z,26.77
2022-11-16T01:59:30.722Z,26.90
2022-11-16T02:02:00.777Z,25.93
2022-11-16T02:04:27.844Z,24.50
2022-11-16T02:07:17.412Z,24.30
2022-11-16T02:10:17.398Z,25.10
2022-11-16T02:13:17.207Z,24.57
2022-11-16T02:16:01.409Z,26.00
2022-11-16T02:18:51.740Z,24.47
2022-11-16T02:21:44.136Z,25.27
2022-11-16T02:24:52.241Z,23.87
2022-11-16T02:28:15.357Z,21.93
2022-11-16T02:30:49.448Z,23.50
2022-11-16T02:33:22.857Z,22.63
2022-11-16T02:35:53.485Z,22.87
2022-11-16T02:38:49.085Z,23.43
2022-11-16T02:41:21.096Z,24.13
2022-11-16T02:44:03.541Z,24.03
2022-11-16T02:46:37.041Z,24.20
2022-11-16T02:49:10.501Z,24.47
2022-11-16T02:51:39.959Z,25.53
2022-11-16T02:54:16.156Z,25.30
2022-11-16T02:57:04.208Z,23.10
2022-11-16T02:59:49.377Z,24.17
2022-11-16T03:02:43.055Z,23.50
2022-11-16T03:05:19.251Z,23.63
2022-11-16T03:08:07.524Z,24.47
2022-11-16T03:10:57.745Z,25.07
2022-11-16T03:13:31.609Z,23.83
2022-11-16T03:16:03.350Z,20.97
2022-11-16T03:18:30.423Z,25.17
2022-11-16T03:21:18.432Z,22.07
2022-11-16T03:23:46.790Z,23.40
2022-11-16T03:26:19.194Z,26.67
2022-11-16T03:29:08.673Z,24.63
2022-11-16T03:31:46.943Z,25.37
2022-11-16T03:34:19.866Z,24.60
2022-11-16T03:36:50.547Z,28.90
2022-11-16T03:39:25.196Z,25.80
2022-11-16T03:41:52.421Z,28.13
2022-11-16T03:44:20.666Z,27.00
2022-11-16T03:46:48.335Z,27.17
2022-11-16T03:49:15.327Z,28.00
2022-11-16T03:51:42.282Z,28.87
2022-11-16T03:54:09.135Z,29.50
2022-11-16T03:56:36.004Z,30.10
2022-11-16T03:59:02.964Z,25.40
2022-11-16T04:01:29.886Z,28.73
2022-11-16T04:03:56.901Z,28.33
2022-11-16T04:06:42.389Z,29.30
2022-11-16T04:09:28.821Z,29.60
2022-11-16T04:12:15.092Z,25.60
2022-11-16T04:15:01.506Z,29.50
2022-11-16T04:17:47.945Z,30.73
2022-11-16T04:20:34.503Z,30.13
2022-11-16T04:23:29.746Z,31.47
2022-11-16T04:25:56.900Z,32.30
2022-11-16T04:28:31.532Z,32.97
2022-11-16T04:31:20.955Z,31.47
2022-11-16T04:34:09.011Z,30.43
2022-11-16T04:36:54.124Z,31.37
2022-11-16T04:39:21.509Z,31.57
2022-11-16T04:42:07.203Z,31.23
2022-11-16T04:44:55.653Z,25.30
2022-11-16T04:47:22.614Z,24.23
2022-11-16T04:49:49.515Z,28.10
2022-11-16T04:52:16.369Z,32.40
2022-11-16T04:54:43.262Z,30.40
2022-11-16T04:57:10.201Z,29.07
2022-11-16T04:59:37.082Z,26.80
2022-11-16T05:02:10.392Z,31.97
2022-11-16T05:04:38.713Z,33.70
2022-11-16T05:07:12.480Z,34.30
2022-11-16T05:09:44.848Z,33.80
2022-11-16T05:12:33.654Z,33.50
2022-11-16T05:15:00.833Z,35.10
2022-11-16T05:17:29.039Z,33.13
2022-11-16T05:20:14.529Z,31.07
2022-11-16T05:22:41.608Z,33.20
2022-11-16T05:25:10.369Z,32.47
2022-11-16T05:27:37.499Z,36.10
2022-11-16T05:30:09.014Z,34.90
2022-11-16T05:32:35.916Z,35.13
2022-11-16T05:35:02.838Z,32.30
2022-11-16T05:37:30.529Z,34.90
2022-11-16T05:39:57.413Z,35.17
2022-11-16T05:42:24.345Z,37.70
2022-11-16T05:44:51.200Z,38.60
2022-11-16T05:47:18.128Z,31.80
2022-11-16T05:49:45.038Z,40.00
2022-11-16T05:52:11.929Z,34.73
2022-11-16T05:54:38.893Z,30.80
2022-11-16T05:57:05.785Z,33.27
2022-11-16T05:59:32.610Z,34.93
2022-11-16T06:01:59.562Z,37.37
2022-11-16T06:04:26.544Z,36.03
2022-11-16T06:06:53.546Z,34.03
2022-11-16T06:09:20.524Z,33.77
2022-11-16T06:11:47.416Z,35.80
2022-11-16T06:14:14.335Z,36.43
2022-11-16T06:16:41.183Z,36.03
2022-11-16T06:19:08.103Z,36.10
2022-11-16T06:21:35.065Z,38.90
2022-11-16T06:24:02.715Z,37.87
2022-11-16T06:26:29.641Z,37.97
2022-11-16T06:28:56.519Z,37.63
2022-11-16T06:31:23.418Z,39.83
2022-11-16T06:33:50.263Z,37.70
2022-11-16T06:36:17.191Z,39.47
2022-11-16T06:38:44.104Z,36.20
2022-11-16T06:41:11.075Z,36.67
2022-11-16T06:43:37.931Z,38.97
2022-11-16T06:46:05.025Z,38.30
2022-11-16T06:48:33.855Z,37.27
2022-11-16T06:51:01.153Z,36.17
2022-11-16T06:53:29.573Z,37.83
2022-11-16T06:56:04.754Z,38.57
2022-11-16T06:58:32.764Z,34.93
2022-11-16T07:01:11.527Z,37.27
2022-11-16T07:03:38.797Z,38.47
2022-11-16T07:06:13.714Z,37.33
2022-11-16T07:08:40.871Z,38.83
2022-11-16T07:11:09.771Z,36.10
2022-11-16T07:13:38.511Z,37.37
2022-11-16T07:16:10.653Z,38.53
2022-11-16T07:18:40.205Z,35.03
2022-11-16T07:21:09.760Z,39.77
2022-11-16T07:23:37.388Z,36.70
2022-11-16T07:26:06.844Z,38.67
2022-11-16T07:28:34.222Z,40.73
2022-11-16T07:31:10.621Z,37.73
2022-11-16T07:33:38.532Z,37.60
2022-11-16T07:37:20.477Z,44.70
2022-11-16T07:39:47.435Z,38.87
2022-11-16T07:42:14.336Z,37.33
2022-11-16T07:44:41.306Z,39.67
2022-11-16T07:47:08.175Z,40.60
2022-11-16T07:49:35.067Z,33.87
2022-11-16T07:52:03.165Z,40.67
2022-11-16T07:54:30.060Z,39.50
2022-11-16T07:56:56.927Z,39.37
2022-11-16T07:59:23.873Z,39.80
2022-11-16T08:01:50.914Z,36.70
2022-11-16T08:04:17.806Z,38.83
2022-11-16T08:06:46.786Z,38.07
2022-11-16T08:09:14.091Z,33.90
2022-11-16T08:11:41.502Z,36.60
2022-11-16T08:14:08.429Z,39.53
2022-11-16T08:16:35.348Z,38.30
2022-11-16T08:19:02.322Z,38.57
2022-11-16T08:21:29.351Z,32.57
2022-11-16T08:23:58.637Z,41.17
2022-11-16T08:26:26.004Z,40.70
2022-11-16T08:28:53.926Z,35.50
2022-11-16T08:31:28.859Z,39.70
2022-11-16T08:33:56.703Z,39.97
2022-11-16T08:36:23.992Z,37.87
2022-11-16T08:38:52.383Z,38.23
2022-11-16T08:41:19.866Z,33.40
2022-11-16T08:43:47.385Z,34.40
2022-11-16T08:46:15.341Z,37.10
2022-11-16T08:48:42.806Z,34.33
2022-11-16T08:51:18.535Z,33.60
2022-11-16T08:53:48.242Z,36.13
2022-11-16T08:56:18.567Z,28.03
2022-11-16T08:58:53.848Z,33.00
2022-11-16T09:01:26.433Z,22.37
2022-11-16T09:03:54.341Z,31.77
2022-11-16T09:06:23.188Z,26.57
2022-11-16T09:08:51.071Z,29.20
2022-11-16T09:11:21.944Z,27.77
2022-11-16T09:13:51.520Z,17.80
2022-11-16T09:16:20.857Z,29.77
2022-11-16T09:18:50.403Z,24.80
2022-11-16T09:21:27.002Z,26.57
2022-11-16T09:23:55.318Z,28.70
2022-11-16T09:26:23.757Z,30.17
2022-11-16T09:29:00.155Z,28.67
2022-11-16T09:31:31.218Z,28.67
2022-11-16T09:33:59.098Z,26.23
2022-11-16T09:36:28.406Z,26.27
2022-11-16T09:39:25.753Z,25.43
2022-11-16T09:42:02.168Z,21.53
2022-11-16T09:45:04.969Z,19.90
2022-11-16T09:47:52.108Z,20.47
2022-11-16T09:50:46.924Z,18.20
2022-11-16T09:53:18.621Z,18.80
2022-11-16T09:55:55.286Z,21.47
2022-11-16T09:58:39.860Z,16.90
2022-11-16T10:01:29.597Z,15.70
2022-11-16T10:04:12.909Z,13.67
2022-11-16T10:07:06.410Z,14.73
2022-11-16T10:09:34.794Z,14.20
2022-11-16T10:12:43.760Z,14.33
2022-11-16T10:15:50.308Z,14.10
2022-11-16T10:18:17.114Z,14.57
2022-11-16T10:20:54.131Z,15.23
2022-11-16T10:24:05.958Z,15.07
2022-11-16T10:26:37.762Z,17.10
2022-11-16T10:29:10.184Z,17.07
2022-11-16T10:32:07.878Z,14.23
2022-11-16T10:34:53.913Z,16.27
2022-11-16T10:37:22.353Z,16.50
2022-11-16T10:39:53.032Z,16.57
2022-11-16T10:42:39.223Z,14.33
2022-11-16T10:45:18.648Z,15.67
2022-11-16T10:48:04.376Z,14.90
2022-11-16T10:50:48.219Z,17.70
2022-11-16T10:53:27.114Z,13.70
2022-11-16T10:56:19.833Z,14.83
2022-11-16T10:58:57.513Z,17.70
2022-11-16T11:01:39.702Z,18.17
2022-11-16T11:04:22.853Z,18.40
2022-11-16T11:06:55.288Z,18.67
2022-11-16T11:09:37.356Z,17.20
2022-11-16T11:12:34.584Z,18.67
2022-11-16T11:15:41.455Z,20.00
2022-11-16T11:18:23.477Z,17.30
2022-11-16T11:20:53.253Z,17.67
2022-11-16T11:23:25.544Z,18.30
2022-11-16T11:25:58.856Z,18.30
2022-11-16T11:28:31.859Z,16.23
2022-11-16T11:31:25.745Z,14.33
2022-11-16T11:33:57.357Z,16.80
2022-11-16T11:36:35.729Z,19.00
2022-11-16T11:39:30.173Z,17.23
2022-11-16T11:42:27.376Z,16.47
2022-11-16T11:44:58.908Z,18.67
2022-11-16T11:47:58.154Z,18.67
2022-11-16T11:51:09.479Z,17.83
2022-11-16T11:53:52.510Z,19.07
2022-11-16T11:56:20.108Z,21.03
2022-11-16T11:58:48.464Z,18.87
2022-11-16T12:01:37.645Z,18.30
2022-11-16T12:04:36.799Z,20.23
2022-11-16T12:07:47.817Z,20.50
2022-11-16T12:10:36.094Z,15.63
2022-11-16T12:13:46.279Z,20.57
2022-11-16T12:16:21.937Z,18.93
2022-11-16T12:19:25.984Z,18.10
2022-11-16T12:22:27.001Z,20.33
2022-11-16T12:25:14.956Z,21.60
2022-11-16T12:28:25.296Z,18.53
2022-11-16T12:31:39.277Z,21.07
2022-11-16T12:34:33.168Z,20.47
2022-11-16T12:37:49.283Z,18.50
2022-11-16T12:40:23.448Z,21.23
2022-11-16T12:42:58.779Z,20.00
2022-11-16T12:45:40.886Z,19.40
2022-11-16T12:48:25.730Z,18.20
2022-11-16T12:51:31.765Z,19.50
2022-11-16T12:54:28.689Z,17.40
2022-11-16T12:57:28.955Z,20.50
2022-11-16T13:00:04.757Z,20.07
2022-11-16T13:03:02.761Z,17.00
2022-11-16T13:06:40.986Z,18.63
2022-11-16T13:09:11.484Z,18.67
2022-11-16T13:11:55.006Z,19.37
2022-11-16T13:14:48.163Z,19.00
2022-11-16T13:17:22.838Z,16.73
2022-11-16T13:20:22.646Z,14.90
2022-11-16T13:23:13.397Z,19.70
2022-11-16T13:26:00.465Z,18.63
2022-11-16T13:29:02.865Z,17.53
2022-11-16T13:31:59.796Z,17.40
2022-11-16T13:34:37.201Z,18.53
2022-11-16T13:37:38.988Z,18.37
2022-11-16T13:40:05.786Z,18.80
2022-11-16T13:43:02.733Z,17.30
2022-11-16T13:45:49.898Z,15.77
2022-11-16T13:48:35.195Z,17.27
2022-11-16T13:51:06.180Z,18.90
2022-11-16T13:56:29.438Z,15.20
2022-11-16T13:58:58.238Z,14.50
2022-11-16T14:01:26.599Z,18.03
2022-11-16T14:04:41.770Z,14.77
2022-11-16T14:07:36.984Z,17.20
2022-11-16T14:10:06.046Z,16.00
2022-11-16T14:12:38.831Z,16.87
2022-11-16T14:15:23.311Z,15.20
2022-11-16T14:18:30.079Z,13.97
2022-11-16T14:21:40.957Z,15.87
2022-11-16T14:24:40.135Z,14.20
2022-11-16T14:27:41.500Z,13.37
2022-11-16T14:30:29.170Z,15.67
2022-11-16T14:32:57.820Z,15.47
2022-11-16T14:35:36.475Z,15.40
2022-11-16T14:38:07.926Z,15.70
2022-11-16T14:40:58.953Z,15.47
2022-11-16T14:43:40.614Z,13.67
2022-11-16T14:46:22.511Z,14.10
2022-11-16T14:48:50.545Z,15.23
2022-11-16T14:51:45.433Z,13.50
2022-11-16T14:54:38.111Z,15.13
2022-11-16T14:57:13.162Z,17.20
2022-11-16T14:59:40.078Z,19.47
2022-11-16T15:02:22.930Z,16.10
2022-11-16T15:04:52.978Z,17.03
2022-11-16T15:07:22.973Z,17.70
2022-11-16T15:09:53.386Z,15.70
2022-11-16T15:12:45.805Z,16.73
2022-11-16T15:15:16.989Z,16.53
2022-11-16T15:17:48.717Z,15.80
2022-11-16T15:20:16.088Z,15.43
2022-11-16T15:22:46.739Z,16.83
2022-11-16T15:25:37.109Z,15.73
2022-11-16T15:28:17.237Z,13.07
2022-11-16T15:30:51.546Z,15.50
2022-11-16T15:33:25.154Z,15.73
2022-11-16T15:35:53.922Z,15.17
2022-11-16T15:38:25.390Z,16.63
2022-11-16T15:41:01.662Z,14.60
2022-11-16T15:44:11.795Z,13.93
2022-11-16T15:46:36.769Z,13.53
2022-11-16T15:49:03.738Z,14.07
2022-11-16T15:51:31.269Z,13.43
2022-11-16T15:54:28.862Z,10.20
2022-11-16T15:57:04.859Z,13.60
2022-11-16T15:59:35.708Z,11.50
2022-11-16T16:02:03.504Z,10.60
2022-11-16T16:04:30.442Z,12.87
2022-11-16T16:07:00.098Z,12.47
2022-11-16T16:09:30.428Z,11.60
2022-11-16T16:12:16.320Z,12.17
2022-11-16T16:14:44.341Z,11.93
2022-11-16T16:17:24.848Z,11.90
2022-11-16T16:19:58.549Z,13.80
2022-11-16T16:22:34.777Z,13.33
2022-11-16T16:25:04.190Z,11.03
2022-11-16T16:27:32.577Z,10.47
2022-11-16T16:30:04.902Z,9.17
2022-11-16T16:32:34.945Z,11.10
2022-11-16T16:35:06.276Z,13.57
2022-11-16T16:37:36.012Z,12.27
2022-11-16T16:40:03.944Z,12.43
2022-11-16T16:42:31.055Z,12.97
2022-11-16T16:45:00.044Z,12.30
2022-11-16T16:47:26.938Z,12.10
2022-11-16T16:49:54.225Z,12.43
2022-11-16T16:52:21.249Z,13.20
2022-11-16T16:54:48.142Z,11.17
2022-11-16T16:57:17.184Z,11.57
2022-11-16T16:59:45.822Z,11.73
2022-11-16T17:02:13.495Z,11.10
2022-11-16T17:04:41.204Z,12.10
2022-11-16T17:07:08.242Z,12.50
2022-11-16T17:09:35.229Z,10.53
2022-11-16T17:12:02.219Z,9.40
2022-11-16T17:14:29.253Z,11.93
2022-11-16T17:16:56.151Z,10.00
2022-11-16T17:19:23.343Z,10.17
2022-11-16T17:21:52.169Z,10.57
2022-11-16T17:24:19.374Z,9.70
2022-11-16T17:26:50.639Z,11.20
2022-11-16T17:29:17.621Z,10.07
2022-11-16T17:31:47.517Z,12.00
2022-11-16T17:34:14.705Z,11.63
2022-11-16T17:36:43.115Z,13.50
2022-11-16T17:39:10.002Z,12.70
2022-11-16T17:41:37.635Z,10.70
2022-11-16T17:44:17.176Z,12.80
2022-11-16T17:46:47.153Z,11.47
2022-11-16T17:49:14.258Z,11.63
2022-11-16T17:51:41.198Z,12.10
2022-11-16T17:54:08.054Z,10.83
2022-11-16T17:56:34.968Z,11.13
2022-11-16T17:59:02.077Z,12.10
2022-11-16T18:01:29.121Z,9.53
2022-11-16T18:03:56.159Z,10.53
2022-11-16T18:06:25.355Z,10.37
2022-11-16T18:08:53.080Z,10.20
2022-11-16T18:11:26.419Z,11.60
2022-11-16T18:14:00.605Z,9.70
2022-11-16T18:16:30.679Z,9.57
2022-11-16T18:19:04.394Z,9.07
2022-11-16T18:21:33.682Z,9.20
2022-11-16T18:24:00.850Z,9.80
2022-11-16T18:26:27.796Z,9.20
2022-11-16T18:28:54.788Z,10.13
2022-11-16T18:31:24.145Z,9.00
2022-11-16T18:33:51.939Z,9.80
2022-11-16T18:36:20.757Z,7.30
2022-11-16T18:38:48.492Z,8.13
2022-11-16T18:41:23.001Z,8.77
2022-11-16T18:43:53.497Z,9.60
2022-11-16T18:46:23.785Z,8.97
2022-11-16T18:48:51.103Z,8.27
2022-11-16T18:51:20.228Z,9.10
2022-11-16T18:53:47.600Z,9.60
2022-11-16T18:56:15.024Z,9.80
2022-11-16T18:58:52.004Z,9.57
2022-11-16T19:01:23.653Z,9.23
2022-11-16T19:03:52.624Z,8.50
2022-11-16T19:06:20.611Z,9.13
2022-11-16T19:08:55.793Z,7.27
2022-11-16T19:11:24.135Z,8.10
2022-11-16T19:13:57.664Z,8.40
2022-11-16T19:16:25.217Z,7.57
2022-11-16T19:18:52.892Z,8.33
2022-11-16T19:21:20.350Z,8.90
2022-11-16T19:23:53.567Z,8.00
2022-11-16T19:26:26.178Z,8.50
2022-11-16T19:28:54.017Z,7.77
2022-11-16T19:31:24.188Z,7.70
2022-11-16T19:33:56.490Z,6.50
2022-11-16T19:36:24.547Z,7.17
2022-11-16T19:38:51.952Z,8.83
2022-11-16T19:41:22.804Z,7.10
2022-11-16T19:43:52.735Z,7.30
2022-11-16T19:46:24.296Z,7.30
2022-11-16T19:48:51.848Z,6.83
2022-11-16T19:51:22.112Z,6.47
2022-11-16T19:53:49.159Z,7.73
2022-11-16T19:56:19.081Z,7.20
2022-11-16T19:58:47.194Z,6.53
2022-11-16T20:01:18.367Z,6.70
2022-11-16T20:03:46.954Z,8.13
2022-11-16T20:06:21.739Z,7.63
2022-11-16T20:08:55.750Z,9.23
2022-11-16T20:11:25.439Z,7.50
2022-11-16T20:13:54.305Z,6.90
2022-11-16T20:16:27.284Z,6.97
2022-11-16T20:18:55.132Z,6.73
2022-11-16T20:21:25.769Z,6.80
2022-11-16T20:23:53.908Z,6.70
2022-11-16T20:26:22.785Z,7.70
2022-11-16T20:28:52.386Z,6.53
2022-11-16T20:31:25.084Z,6.07
2022-11-16T20:34:05.830Z,6.60
2022-11-16T20:36:34.057Z,6.97
2022-11-16T20:39:01.252Z,7.77
2022-11-16T20:41:32.901Z,7.97
2022-11-16T20:44:02.290Z,6.97
2022-11-16T20:46:33.307Z,6.70
2022-11-16T20:49:02.240Z,7.10
2022-11-16T20:51:30.403Z,7.80
2022-11-16T20:53:57.850Z,7.27
2022-11-16T20:56:25.282Z,8.47
2022-11-16T20:58:52.138Z,8.17
2022-11-16T21:01:28.114Z,7.77
2022-11-16T21:03:56.377Z,7.70
2022-11-16T21:06:23.379Z,8.30
2022-11-16T21:08:50.325Z,6.10
2022-11-16T21:11:22.622Z,7.30
2022-11-16T21:14:08.076Z,6.50
2022-11-16T21:16:35.372Z,6.33
2022-11-16T21:19:03.088Z,7.43
2022-11-16T21:21:30.532Z,7.90
2022-11-16T21:23:57.582Z,7.33
2022-11-16T21:26:30.844Z,6.93
2022-11-16T21:28:59.374Z,7.40
2022-11-16T21:31:29.990Z,7.23
2022-11-16T21:33:57.934Z,7.03
2022-11-16T21:36:28.404Z,8.90
2022-11-16T21:38:56.305Z,8.07
2022-11-16T21:41:25.602Z,7.43
2022-11-16T21:43:52.985Z,7.00
2022-11-16T21:46:25.857Z,7.80
2022-11-16T21:48:55.429Z,7.63
2022-11-16T21:51:25.530Z,7.27
2022-11-16T21:53:52.618Z,6.20
2022-11-16T21:56:23.023Z,6.60
2022-11-16T21:58:52.638Z,6.93
2022-11-16T22:01:21.242Z,7.43
2022-11-16T22:04:08.382Z,7.30
2022-11-16T22:06:53.942Z,7.97
2022-11-16T22:09:21.504Z,7.37
2022-11-16T22:11:48.385Z,5.30
2022-11-16T22:14:15.238Z,6.60
2022-11-16T22:16:42.240Z,7.23
2022-11-16T22:19:09.167Z,5.43
2022-11-16T22:21:36.010Z,6.93
2022-11-16T22:24:02.957Z,6.70
2022-11-16T22:26:29.982Z,7.00
2022-11-16T22:28:58.482Z,8.50
2022-11-16T22:31:25.411Z,7.43
2022-11-16T22:33:53.800Z,6.73
2022-11-16T22:36:20.790Z,6.13
2022-11-16T22:38:47.886Z,7.47
2022-11-16T22:41:14.859Z,7.20
2022-11-16T22:43:41.809Z,6.37
2022-11-16T22:46:10.939Z,6.37
2022-11-16T22:48:39.793Z,7.37
2022-11-16T22:51:24.320Z,7.23
2022-11-16T22:54:03.327Z,6.23
2022-11-16T22:56:32.869Z,7.07
2022-11-16T22:59:03.224Z,7.30
2022-11-16T23:01:30.074Z,6.70
2022-11-16T23:03:57.075Z,7.40
2022-11-16T23:06:24.970Z,4.80
2022-11-16T23:08:51.852Z,7.50
2022-11-16T23:11:40.737Z,6.33
2022-11-16T23:14:30.393Z,7.00
2022-11-16T23:16:57.526Z,6.60
2022-11-16T23:19:43.506Z,7.37
2022-11-16T23:22:36.254Z,7.90
2022-11-16T23:25:23.602Z,8.10
2022-11-16T23:28:13.561Z,7.10
2022-11-16T23:30:40.609Z,7.63
2022-11-16T23:33:07.895Z,8.67
2022-11-16T23:35:35.111Z,7.37
2022-11-16T23:38:04.965Z,8.73
2022-11-16T23:40:38.547Z,8.03
2022-11-16T23:43:25.411Z,7.20
2022-11-16T23:45:52.307Z,7.63
2022-11-16T23:48:19.406Z,8.83
2022-11-16T23:50:46.814Z,8.73
2022-11-16T23:53:14.479Z,6.40
2022-11-16T23:55:41.725Z,7.13
2022-11-16T23:58:14.283Z,7.30
